sensor_id;sensor_type;location;lat;lon;timestamp;pressure;altitude;pressure_sealevel;temperature;humidity
51313;BME280;37397;53.226;10.400;2022-08-19T00:01:49;100783.03;;;23.24;59.83
51313;BME280;37397;53.226;10.400;2022-08-19T00:04:21;100780.69;;;23.22;59.88
51313;BME280;37397;53.226;10.400;2022-08-19T00:06:48;100776.38;;;23.16;60.81
51313;BME280;37397;53.226;10.400;2022-08-19T00:09:17;100786.09;;;23.18;60.41
51313;BME280;37397;53.226;10.400;2022-08-19T00:11:45;100787.25;;;23.15;60.52
51313;BME280;37397;53.226;10.400;2022-08-19T00:14:14;100795.97;;;23.15;60.36
51313;BME280;37397;53.226;10.400;2022-08-19T00:16:43;100785.69;;;23.14;60.20
51313;BME280;37397;53.226;10.400;2022-08-19T00:19:10;100793.22;;;23.09;60.83
51313;BME280;37397;53.226;10.400;2022-08-19T00:21:37;100787.22;;;23.07;61.39
51313;BME280;37397;53.226;10.400;2022-08-19T00:24:07;100782.16;;;23.08;60.98
51313;BME280;37397;53.226;10.400;2022-08-19T00:26:35;100773.19;;;23.06;60.77
51313;BME280;37397;53.226;10.400;2022-08-19T00:29:03;100780.03;;;23.08;60.58
51313;BME280;37397;53.226;10.400;2022-08-19T00:31:30;100777.44;;;23.05;60.98
51313;BME280;37397;53.226;10.400;2022-08-19T00:33:57;100783.28;;;23.05;60.82
51313;BME280;37397;53.226;10.400;2022-08-19T00:36:24;100784.63;;;23.04;60.74
51313;BME280;37397;53.226;10.400;2022-08-19T00:38:51;100780.16;;;23.03;60.64
51313;BME280;37397;53.226;10.400;2022-08-19T00:41:21;100777.81;;;23.01;60.63
51313;BME280;37397;53.226;10.400;2022-08-19T00:44:08;100784.78;;;22.98;60.81
51313;BME280;37397;53.226;10.400;2022-08-19T00:46:38;100773.91;;;22.99;60.92
51313;BME280;37397;53.226;10.400;2022-08-19T00:49:12;100775.28;;;22.98;60.64
51313;BME280;37397;53.226;10.400;2022-08-19T00:51:42;100778.53;;;22.94;60.96
51313;BME280;37397;53.226;10.400;2022-08-19T00:54:11;100780.66;;;22.93;61.11
51313;BME280;37397;53.226;10.400;2022-08-19T00:56:38;100775.84;;;22.96;60.75
51313;BME280;37397;53.226;10.400;2022-08-19T00:59:07;100773.50;;;22.94;61.00
51313;BME280;37397;53.226;10.400;2022-08-19T01:01:40;100773.28;;;22.92;60.77
51313;BME280;37397;53.226;10.400;2022-08-19T01:04:08;100775.41;;;22.92;60.88
51313;BME280;37397;53.226;10.400;2022-08-19T01:06:36;100758.53;;;22.90;60.91
51313;BME280;37397;53.226;10.400;2022-08-19T01:09:05;100753.84;;;22.87;61.02
51313;BME280;37397;53.226;10.400;2022-08-19T01:11:36;100756.75;;;22.87;60.95
51313;BME280;37397;53.226;10.400;2022-08-19T01:14:04;100759.66;;;22.87;60.82
51313;BME280;37397;53.226;10.400;2022-08-19T01:16:32;100752.09;;;22.84;60.94
51313;BME280;37397;53.226;10.400;2022-08-19T01:19:01;100737.13;;;22.80;61.06
51313;BME280;37397;53.226;10.400;2022-08-19T01:21:32;100743.16;;;22.82;61.16
51313;BME280;37397;53.226;10.400;2022-08-19T01:24:00;100733.44;;;22.80;61.12
51313;BME280;37397;53.226;10.400;2022-08-19T01:26:27;100740.03;;;22.80;61.07
51313;BME280;37397;53.226;10.400;2022-08-19T01:28:58;100741.94;;;22.77;61.04
51313;BME280;37397;53.226;10.400;2022-08-19T01:31:28;100738.47;;;22.79;61.00
51313;BME280;37397;53.226;10.400;2022-08-19T01:34:00;100739.63;;;22.76;61.22
51313;BME280;37397;53.226;10.400;2022-08-19T01:36:37;100744.66;;;22.75;61.29
51313;BME280;37397;53.226;10.400;2022-08-19T01:39:07;100752.38;;;22.73;61.09
51313;BME280;37397;53.226;10.400;2022-08-19T01:41:34;100747.94;;;22.72;61.30
51313;BME280;37397;53.226;10.400;2022-08-19T01:44:01;100750.06;;;22.71;61.13
51313;BME280;37397;53.226;10.400;2022-08-19T01:46:45;100746.16;;;22.69;61.26
51313;BME280;37397;53.226;10.400;2022-08-19T01:49:13;100743.47;;;22.71;61.01
51313;BME280;37397;53.226;10.400;2022-08-19T01:51:40;100747.72;;;22.70;61.33
51313;BME280;37397;53.226;10.400;2022-08-19T01:54:09;100732.97;;;22.68;61.30
51313;BME280;37397;53.226;10.400;2022-08-19T01:56:35;100740.13;;;22.67;61.26
51313;BME280;37397;53.226;10.400;2022-08-19T01:59:05;100739.91;;;22.65;61.33
51313;BME280;37397;53.226;10.400;2022-08-19T02:01:32;100735.25;;;22.62;61.36
51313;BME280;37397;53.226;10.400;2022-08-19T02:04:00;100744.19;;;22.64;61.64
51313;BME280;37397;53.226;10.400;2022-08-19T02:06:27;100738.72;;;22.60;61.63
51313;BME280;37397;53.226;10.400;2022-08-19T02:08:55;100737.94;;;22.60;61.57
51313;BME280;37397;53.226;10.400;2022-08-19T02:11:27;100730.56;;;22.58;61.65
51313;BME280;37397;53.226;10.400;2022-08-19T02:13:54;100734.03;;;22.57;61.54
51313;BME280;37397;53.226;10.400;2022-08-19T02:16:21;100730.56;;;22.58;61.50
51313;BME280;37397;53.226;10.400;2022-08-19T02:18:48;100712.28;;;22.50;61.56
51313;BME280;37397;53.226;10.400;2022-08-19T02:21:16;100713.84;;;22.51;61.48
51313;BME280;37397;53.226;10.400;2022-08-19T02:23:43;100734.78;;;22.50;61.69
51313;BME280;37397;53.226;10.400;2022-08-19T02:26:10;100731.09;;;22.49;61.42
51313;BME280;37397;53.226;10.400;2022-08-19T02:28:37;100733.44;;;22.51;61.60
51313;BME280;37397;53.226;10.400;2022-08-19T02:31:09;100727.38;;;22.49;61.54
51313;BME280;37397;53.226;10.400;2022-08-19T02:33:36;100738.25;;;22.48;61.69
51313;BME280;37397;53.226;10.400;2022-08-19T02:36:04;100732.78;;;22.45;61.64
51313;BME280;37397;53.226;10.400;2022-08-19T02:38:31;100736.25;;;22.43;61.57
51313;BME280;37397;53.226;10.400;2022-08-19T02:41:01;100733.56;;;22.45;61.67
51313;BME280;37397;53.226;10.400;2022-08-19T02:43:30;100722.88;;;22.40;61.59
51313;BME280;37397;53.226;10.400;2022-08-19T02:46:00;100714.16;;;22.40;61.64
51313;BME280;37397;53.226;10.400;2022-08-19T02:48:27;100699.75;;;22.34;62.35
51313;BME280;37397;53.226;10.400;2022-08-19T02:50:54;100709.25;;;22.35;62.32
51313;BME280;37397;53.226;10.400;2022-08-19T02:53:27;100715.66;;;22.33;61.98
51313;BME280;37397;53.226;10.400;2022-08-19T02:55:54;100713.50;;;22.34;62.06
51313;BME280;37397;53.226;10.400;2022-08-19T02:58:21;100709.81;;;22.33;62.01
51313;BME280;37397;53.226;10.400;2022-08-19T03:00:53;100705.91;;;22.31;61.93
51313;BME280;37397;53.226;10.400;2022-08-19T03:03:20;100714.63;;;22.31;62.09
51313;BME280;37397;53.226;10.400;2022-08-19T03:05:47;100719.69;;;22.30;62.00
51313;BME280;37397;53.226;10.400;2022-08-19T03:08:23;100724.47;;;22.28;61.93
51313;BME280;37397;53.226;10.400;2022-08-19T03:10:50;100717.09;;;22.27;62.07
51313;BME280;37397;53.226;10.400;2022-08-19T03:13:18;100708.94;;;22.25;61.96
51313;BME280;37397;53.226;10.400;2022-08-19T03:15:46;100713.97;;;22.25;62.01
51313;BME280;37397;53.226;10.400;2022-08-19T03:18:14;100729.06;;;22.23;61.98
51313;BME280;37397;53.226;10.400;2022-08-19T03:20:44;100725.38;;;22.22;62.19
51313;BME280;37397;53.226;10.400;2022-08-19T03:23:12;100726.72;;;22.21;62.12
51313;BME280;37397;53.226;10.400;2022-08-19T03:25:44;100735.69;;;22.24;62.08
51313;BME280;37397;53.226;10.400;2022-08-19T03:28:23;100731.78;;;22.21;62.10
51313;BME280;37397;53.226;10.400;2022-08-19T03:30:59;100736.00;;;22.20;61.81
51313;BME280;37397;53.226;10.400;2022-08-19T03:33:28;100746.09;;;22.19;62.17
51313;BME280;37397;53.226;10.400;2022-08-19T03:36:11;100743.75;;;22.17;62.08
51313;BME280;37397;53.226;10.400;2022-08-19T03:38:42;100752.69;;;22.19;62.22
51313;BME280;37397;53.226;10.400;2022-08-19T03:41:18;100752.69;;;22.19;62.18
51313;BME280;37397;53.226;10.400;2022-08-19T03:43:45;100758.84;;;22.16;62.38
51313;BME280;37397;53.226;10.400;2022-08-19T03:46:18;100767.00;;;22.17;62.29
51313;BME280;37397;53.226;10.400;2022-08-19T03:48:51;100763.91;;;22.15;62.33
51313;BME280;37397;53.226;10.400;2022-08-19T03:51:22;100767.56;;;22.16;62.10
51313;BME280;37397;53.226;10.400;2022-08-19T03:53:58;100758.84;;;22.16;62.14
51313;BME280;37397;53.226;10.400;2022-08-19T03:56:26;100761.56;;;22.14;62.30
51313;BME280;37397;53.226;10.400;2022-08-19T03:58:58;100762.31;;;22.14;62.39
51313;BME280;37397;53.226;10.400;2022-08-19T04:01:27;100766.56;;;22.13;62.22
51313;BME280;37397;53.226;10.400;2022-08-19T04:04:01;100756.06;;;22.10;62.38
51313;BME280;37397;53.226;10.400;2022-08-19T04:06:32;100762.13;;;22.12;62.46
51313;BME280;37397;53.226;10.400;2022-08-19T04:09:00;100760.56;;;22.11;62.21
51313;BME280;37397;53.226;10.400;2022-08-19T04:11:30;100761.88;;;22.10;62.38
51313;BME280;37397;53.226;10.400;2022-08-19T04:14:14;100764.59;;;22.08;62.38
51313;BME280;37397;53.226;10.400;2022-08-19T04:16:41;100768.81;;;22.07;62.44
51313;BME280;37397;53.226;10.400;2022-08-19T04:19:10;100767.28;;;22.06;62.58
51313;BME280;37397;53.226;10.400;2022-08-19T04:21:36;100768.06;;;22.07;62.49
51313;BME280;37397;53.226;10.400;2022-08-19T04:24:03;100766.47;;;22.06;62.34
51313;BME280;37397;53.226;10.400;2022-08-19T04:26:33;100772.28;;;22.06;62.42
51313;BME280;37397;53.226;10.400;2022-08-19T04:29:13;100771.53;;;22.05;62.20
51313;BME280;37397;53.226;10.400;2022-08-19T04:31:40;100778.66;;;22.04;62.40
51313;BME280;37397;53.226;10.400;2022-08-19T04:34:10;100783.16;;;22.05;62.33
51313;BME280;37397;53.226;10.400;2022-08-19T04:36:41;100781.56;;;22.04;62.56
51313;BME280;37397;53.226;10.400;2022-08-19T04:39:12;100782.38;;;22.04;62.42
51313;BME280;37397;53.226;10.400;2022-08-19T04:41:40;100787.38;;;22.04;62.44
51313;BME280;37397;53.226;10.400;2022-08-19T04:44:25;100785.84;;;22.03;62.44
51313;BME280;37397;53.226;10.400;2022-08-19T04:46:52;100784.28;;;22.02;62.54
51313;BME280;37397;53.226;10.400;2022-08-19T04:49:21;100781.16;;;22.00;62.50
51313;BME280;37397;53.226;10.400;2022-08-19T04:51:52;100781.94;;;22.00;62.59
51313;BME280;37397;53.226;10.400;2022-08-19T04:54:21;100777.47;;;21.99;62.52
51313;BME280;37397;53.226;10.400;2022-08-19T04:57:05;100782.50;;;21.99;62.66
51313;BME280;37397;53.226;10.400;2022-08-19T04:59:34;100780.72;;;21.96;62.66
51313;BME280;37397;53.226;10.400;2022-08-19T05:02:01;100788.88;;;21.97;62.73
51313;BME280;37397;53.226;10.400;2022-08-19T05:04:27;100791.22;;;21.99;62.77
51313;BME280;37397;53.226;10.400;2022-08-19T05:06:57;100789.66;;;21.98;62.70
51313;BME280;37397;53.226;10.400;2022-08-19T05:09:28;100785.53;;;21.93;62.78
51313;BME280;37397;53.226;10.400;2022-08-19T05:12:14;100801.63;;;21.94;62.75
51313;BME280;37397;53.226;10.400;2022-08-19T05:14:42;100803.97;;;21.96;62.84
51313;BME280;37397;53.226;10.400;2022-08-19T05:17:08;100802.41;;;21.95;62.86
51313;BME280;37397;53.226;10.400;2022-08-19T05:19:55;100795.03;;;21.94;63.03
51313;BME280;37397;53.226;10.400;2022-08-19T05:22:43;100794.25;;;21.93;62.86
51313;BME280;37397;53.226;10.400;2022-08-19T05:25:13;100800.06;;;21.93;62.83
51313;BME280;37397;53.226;10.400;2022-08-19T05:27:41;100808.00;;;21.93;62.94
51313;BME280;37397;53.226;10.400;2022-08-19T05:30:10;100806.44;;;21.92;63.18
51313;BME280;37397;53.226;10.400;2022-08-19T05:32:37;100808.59;;;21.91;62.98
51313;BME280;37397;53.226;10.400;2022-08-19T05:35:04;100809.34;;;21.92;62.97
51313;BME280;37397;53.226;10.400;2022-08-19T05:37:31;100810.13;;;21.92;62.98
51313;BME280;37397;53.226;10.400;2022-08-19T05:39:58;100798.28;;;21.90;63.03
51313;BME280;37397;53.226;10.400;2022-08-19T05:42:24;100802.78;;;21.91;62.80
51313;BME280;37397;53.226;10.400;2022-08-19T05:44:51;100793.47;;;21.93;63.25
51313;BME280;37397;53.226;10.400;2022-08-19T05:47:18;100800.63;;;21.92;63.15
51313;BME280;37397;53.226;10.400;2022-08-19T05:49:47;100797.72;;;21.92;63.15
51313;BME280;37397;53.226;10.400;2022-08-19T05:52:16;100797.72;;;21.92;63.01
51313;BME280;37397;53.226;10.400;2022-08-19T05:54:45;100803.53;;;21.92;63.08
51313;BME280;37397;53.226;10.400;2022-08-19T05:57:17;100801.97;;;21.91;63.30
51313;BME280;37397;53.226;10.400;2022-08-19T05:59:44;100789.56;;;21.90;63.43
51313;BME280;37397;53.226;10.400;2022-08-19T06:02:12;100785.66;;;21.88;63.90
51313;BME280;37397;53.226;10.400;2022-08-19T06:04:40;100782.00;;;21.87;63.60
51313;BME280;37397;53.226;10.400;2022-08-19T06:07:09;100784.53;;;21.91;63.57
51313;BME280;37397;53.226;10.400;2022-08-19T06:09:39;100783.00;;;21.90;64.38
51313;BME280;37397;53.226;10.400;2022-08-19T06:12:05;100771.38;;;21.90;65.47
51313;BME280;37397;53.226;10.400;2022-08-19T06:14:34;100779.63;;;21.85;65.41
51313;BME280;37397;53.226;10.400;2022-08-19T06:17:05;100766.25;;;21.82;65.47
51313;BME280;37397;53.226;10.400;2022-08-19T06:19:33;100770.47;;;21.81;65.96
51313;BME280;37397;53.226;10.400;2022-08-19T06:22:06;100761.75;;;21.81;65.76
51313;BME280;37397;53.226;10.400;2022-08-19T06:24:33;100759.88;;;21.84;65.73
51313;BME280;37397;53.226;10.400;2022-08-19T06:27:02;100765.47;;;21.82;65.58
51313;BME280;37397;53.226;10.400;2022-08-19T06:29:29;100769.16;;;21.82;65.37
51313;BME280;37397;53.226;10.400;2022-08-19T06:31:58;100758.94;;;21.89;65.22
51313;BME280;37397;53.226;10.400;2022-08-19T06:34:27;100769.34;;;21.84;66.16
51313;BME280;37397;53.226;10.400;2022-08-19T06:36:55;100765.47;;;21.82;66.11
51313;BME280;37397;53.226;10.400;2022-08-19T06:39:24;100770.94;;;21.85;66.44
51313;BME280;37397;53.226;10.400;2022-08-19T06:41:54;100772.50;;;21.87;65.95
51313;BME280;37397;53.226;10.400;2022-08-19T06:44:29;100771.69;;;21.86;65.89
51313;BME280;37397;53.226;10.400;2022-08-19T06:46:57;100770.94;;;21.85;66.09
51313;BME280;37397;53.226;10.400;2022-08-19T06:49:24;100773.63;;;21.83;65.85
51313;BME280;37397;53.226;10.400;2022-08-19T06:51:51;100768.78;;;21.86;66.31
51313;BME280;37397;53.226;10.400;2022-08-19T06:54:18;100772.72;;;21.89;65.89
51313;BME280;37397;53.226;10.400;2022-08-19T06:56:46;100774.41;;;21.84;66.17
51313;BME280;37397;53.226;10.400;2022-08-19T06:59:15;100774.28;;;21.90;66.31
51313;BME280;37397;53.226;10.400;2022-08-19T07:01:51;100784.13;;;21.87;65.47
51313;BME280;37397;53.226;10.400;2022-08-19T07:04:28;100784.13;;;21.87;65.99
51313;BME280;37397;53.226;10.400;2022-08-19T07:07:01;100782.53;;;21.85;66.42
51313;BME280;37397;53.226;10.400;2022-08-19T07:09:46;100782.19;;;21.89;66.25
51313;BME280;37397;53.226;10.400;2022-08-19T07:12:31;100784.53;;;21.91;66.27
51313;BME280;37397;53.226;10.400;2022-08-19T07:15:00;100795.38;;;21.90;66.55
51313;BME280;37397;53.226;10.400;2022-08-19T07:17:27;100796.16;;;21.91;66.54
51313;BME280;37397;53.226;10.400;2022-08-19T07:19:54;100811.69;;;21.93;66.51
51313;BME280;37397;53.226;10.400;2022-08-19T07:22:21;100816.72;;;21.93;66.46
51313;BME280;37397;53.226;10.400;2022-08-19T07:24:50;100817.50;;;21.93;66.06
51313;BME280;37397;53.226;10.400;2022-08-19T07:27:18;100821.19;;;21.94;66.24
51313;BME280;37397;53.226;10.400;2022-08-19T07:29:53;100819.84;;;21.95;65.96
51313;BME280;37397;53.226;10.400;2022-08-19T07:32:25;100811.25;;;21.89;66.75
51313;BME280;37397;53.226;10.400;2022-08-19T07:34:53;100817.50;;;21.93;66.77
51313;BME280;37397;53.226;10.400;2022-08-19T07:37:22;100819.41;;;21.91;66.95
51313;BME280;37397;53.226;10.400;2022-08-19T07:39:48;100832.59;;;21.92;67.07
51313;BME280;37397;53.226;10.400;2022-08-19T07:42:15;100827.00;;;21.94;66.69
51313;BME280;37397;53.226;10.400;2022-08-19T07:44:41;100841.97;;;21.98;66.02
51313;BME280;37397;53.226;10.400;2022-08-19T07:47:17;100834.38;;;21.95;65.93
51313;BME280;37397;53.226;10.400;2022-08-19T07:50:06;100847.00;;;21.97;66.00
51313;BME280;37397;53.226;10.400;2022-08-19T07:52:34;100844.31;;;21.99;65.63
51313;BME280;37397;53.226;10.400;2022-08-19T07:55:03;100859.41;;;21.98;66.15
51313;BME280;37397;53.226;10.400;2022-08-19T07:57:30;100856.72;;;22.00;66.07
51313;BME280;37397;53.226;10.400;2022-08-19T07:59:57;100859.84;;;22.02;65.59
51313;BME280;37397;53.226;10.400;2022-08-19T08:02:24;100862.53;;;22.00;66.21
51313;BME280;37397;53.226;10.400;2022-08-19T08:04:51;100859.63;;;22.00;66.70
51313;BME280;37397;53.226;10.400;2022-08-19T08:07:36;100862.53;;;22.00;66.50
51313;BME280;37397;53.226;10.400;2022-08-19T08:10:21;100863.84;;;21.99;66.65
51313;BME280;37397;53.226;10.400;2022-08-19T08:12:50;100866.56;;;21.97;66.78
51313;BME280;37397;53.226;10.400;2022-08-19T08:15:37;100878.38;;;21.99;66.62
51313;BME280;37397;53.226;10.400;2022-08-19T08:18:09;100872.56;;;21.99;66.28
51313;BME280;37397;53.226;10.400;2022-08-19T08:20:36;100875.72;;;22.01;65.88
51313;BME280;37397;53.226;10.400;2022-08-19T08:23:03;100876.50;;;22.01;66.17
51313;BME280;37397;53.226;10.400;2022-08-19T08:25:48;100872.94;;;21.95;66.56
51313;BME280;37397;53.226;10.400;2022-08-19T08:28:18;100873.69;;;21.96;66.49
51313;BME280;37397;53.226;10.400;2022-08-19T08:30:47;100874.16;;;22.00;66.18
51313;BME280;37397;53.226;10.400;2022-08-19T08:33:24;100882.66;;;21.98;67.11
51313;BME280;37397;53.226;10.400;2022-08-19T08:36:04;100887.09;;;21.99;66.79
51313;BME280;37397;53.226;10.400;2022-08-19T08:38:32;100885.00;;;21.99;66.42
51313;BME280;37397;53.226;10.400;2022-08-19T08:41:11;100891.59;;;22.00;66.37
51313;BME280;37397;53.226;10.400;2022-08-19T08:43:48;100883.06;;;22.02;65.74
51313;BME280;37397;53.226;10.400;2022-08-19T08:46:41;100888.91;;;22.02;65.31
51313;BME280;37397;53.226;10.400;2022-08-19T08:52:10;100894.69;;;22.02;65.31
51313;BME280;37397;53.226;10.400;2022-08-19T08:54:42;100893.94;;;22.01;64.91
51313;BME280;37397;53.226;10.400;2022-08-19T09:00:29;100885.66;;;21.92;66.02
51313;BME280;37397;53.226;10.400;2022-08-19T09:02:57;100893.47;;;21.97;66.23
51313;BME280;37397;53.226;10.400;2022-08-19T09:05:54;100892.91;;;21.99;66.27
51313;BME280;37397;53.226;10.400;2022-08-19T09:08:32;100886.91;;;21.97;65.75
51313;BME280;37397;53.226;10.400;2022-08-19T09:11:00;100893.16;;;22.01;66.11
51313;BME280;37397;53.226;10.400;2022-08-19T09:16:17;100881.09;;;21.97;66.73
51313;BME280;37397;53.226;10.400;2022-08-19T09:18:49;100879.28;;;21.94;66.82
51313;BME280;37397;53.226;10.400;2022-08-19T09:21:20;100877.97;;;21.95;66.41
51313;BME280;37397;53.226;10.400;2022-08-19T09:23:55;100882.75;;;21.92;67.17
51313;BME280;37397;53.226;10.400;2022-08-19T09:26:25;100884.13;;;21.91;66.78
51313;BME280;37397;53.226;10.400;2022-08-19T09:29:12;100869.00;;;21.93;66.98
51313;BME280;37397;53.226;10.400;2022-08-19T09:31:39;100879.84;;;21.92;66.55
51313;BME280;37397;53.226;10.400;2022-08-19T09:34:06;100881.84;;;21.97;66.43
51313;BME280;37397;53.226;10.400;2022-08-19T09:36:46;100888.00;;;21.94;66.34
51313;BME280;37397;53.226;10.400;2022-08-19T09:39:13;100893.47;;;21.97;66.68
51313;BME280;37397;53.226;10.400;2022-08-19T09:41:41;100882.66;;;21.98;66.54
51313;BME280;37397;53.226;10.400;2022-08-19T09:44:14;100889.81;;;21.97;66.64
51313;BME280;37397;53.226;10.400;2022-08-19T09:46:40;100893.16;;;22.01;66.22
51313;BME280;37397;53.226;10.400;2022-08-19T09:49:07;100893.16;;;22.01;66.17
51313;BME280;37397;53.226;10.400;2022-08-19T09:51:33;100894.28;;;21.98;66.55
51313;BME280;37397;53.226;10.400;2022-08-19T09:54:02;100898.97;;;22.01;66.64
51313;BME280;37397;53.226;10.400;2022-08-19T09:56:31;100893.38;;;22.03;66.55
51313;BME280;37397;53.226;10.400;2022-08-19T09:59:00;100894.34;;;22.06;65.93
51313;BME280;37397;53.226;10.400;2022-08-19T10:01:29;100903.88;;;22.06;65.64
51313;BME280;37397;53.226;10.400;2022-08-19T10:03:57;100893.16;;;22.01;66.52
51313;BME280;37397;53.226;10.400;2022-08-19T10:06:26;100899.97;;;22.03;66.52
51313;BME280;37397;53.226;10.400;2022-08-19T10:09:12;100888.13;;;22.01;66.67
51313;BME280;37397;53.226;10.400;2022-08-19T10:11:40;100893.16;;;22.01;67.34
51313;BME280;37397;53.226;10.400;2022-08-19T10:14:18;100891.03;;;22.01;66.49
51313;BME280;37397;53.226;10.400;2022-08-19T10:16:49;100892.00;;;22.04;66.99
51313;BME280;37397;53.226;10.400;2022-08-19T10:19:17;100893.59;;;22.05;66.66
51313;BME280;37397;53.226;10.400;2022-08-19T10:21:51;100880.38;;;22.04;66.62
51313;BME280;37397;53.226;10.400;2022-08-19T10:24:19;100895.72;;;22.04;67.07
51313;BME280;37397;53.226;10.400;2022-08-19T10:26:47;100895.16;;;22.06;66.87
51313;BME280;37397;53.226;10.400;2022-08-19T10:29:25;100899.84;;;22.09;66.77
51313;BME280;37397;53.226;10.400;2022-08-19T10:32:03;100906.44;;;22.10;66.52
51313;BME280;37397;53.226;10.400;2022-08-19T10:34:38;100910.91;;;22.11;66.77
51313;BME280;37397;53.226;10.400;2022-08-19T10:37:15;100896.38;;;22.11;66.92
51313;BME280;37397;53.226;10.400;2022-08-19T10:39:54;100901.75;;;22.07;67.20
51313;BME280;37397;53.226;10.400;2022-08-19T10:42:21;100902.31;;;22.05;66.93
51313;BME280;37397;53.226;10.400;2022-08-19T10:44:48;100906.44;;;22.10;67.03
51313;BME280;37397;53.226;10.400;2022-08-19T10:47:17;100910.34;;;22.12;67.00
51313;BME280;37397;53.226;10.400;2022-08-19T10:49:53;100905.31;;;22.13;66.94
51313;BME280;37397;53.226;10.400;2022-08-19T10:52:43;100900.28;;;22.13;66.89
51313;BME280;37397;53.226;10.400;2022-08-19T10:55:18;100903.97;;;22.14;66.88
51313;BME280;37397;53.226;10.400;2022-08-19T10:58:13;100901.84;;;22.14;66.79
51313;BME280;37397;53.226;10.400;2022-08-19T11:00:41;100900.72;;;22.17;66.82
51313;BME280;37397;53.226;10.400;2022-08-19T11:03:09;100895.69;;;22.18;66.94
51313;BME280;37397;53.226;10.400;2022-08-19T11:05:36;100893.53;;;22.18;67.05
51313;BME280;37397;53.226;10.400;2022-08-19T11:08:06;100898.03;;;22.19;66.92
51313;BME280;37397;53.226;10.400;2022-08-19T11:10:54;100896.91;;;22.22;66.72
51313;BME280;37397;53.226;10.400;2022-08-19T11:13:24;100887.97;;;22.20;67.07
51313;BME280;37397;53.226;10.400;2022-08-19T11:16:01;100887.09;;;22.12;67.43
51313;BME280;37397;53.226;10.400;2022-08-19T11:18:42;100882.41;;;22.09;67.17
51313;BME280;37397;53.226;10.400;2022-08-19T11:21:21;100879.25;;;22.07;67.89
51313;BME280;37397;53.226;10.400;2022-08-19T11:23:50;100887.09;;;22.12;68.01
51313;BME280;37397;53.226;10.400;2022-08-19T11:26:18;100884.41;;;22.14;67.84
51313;BME280;37397;53.226;10.400;2022-08-19T11:28:45;100881.34;;;22.20;67.34
51313;BME280;37397;53.226;10.400;2022-08-19T11:31:15;100875.53;;;22.20;67.39
51313;BME280;37397;53.226;10.400;2022-08-19T11:33:42;100881.81;;;22.24;67.47
51313;BME280;37397;53.226;10.400;2022-08-19T11:36:13;100879.91;;;22.27;67.18
51313;BME280;37397;53.226;10.400;2022-08-19T11:38:40;100875.88;;;22.30;67.35
51313;BME280;37397;53.226;10.400;2022-08-19T11:41:07;100879.22;;;22.34;67.28
51313;BME280;37397;53.226;10.400;2022-08-19T11:43:34;100872.84;;;22.35;67.02
51313;BME280;37397;53.226;10.400;2022-08-19T11:46:05;100871.84;;;22.33;67.17
51313;BME280;37397;53.226;10.400;2022-08-19T11:48:34;100871.41;;;22.29;67.32
51313;BME280;37397;53.226;10.400;2022-08-19T11:51:04;100876.88;;;22.32;67.36
51313;BME280;37397;53.226;10.400;2022-08-19T11:53:36;100877.66;;;22.33;67.57
51313;BME280;37397;53.226;10.400;2022-08-19T11:56:04;100863.34;;;22.35;67.73
51313;BME280;37397;53.226;10.400;2022-08-19T11:58:31;100869.16;;;22.35;67.75
51313;BME280;37397;53.226;10.400;2022-08-19T12:00:57;100869.38;;;22.37;67.68
51313;BME280;37397;53.226;10.400;2022-08-19T12:03:24;100875.19;;;22.37;67.98
51313;BME280;37397;53.226;10.400;2022-08-19T12:05:51;100863.78;;;22.39;67.84
51313;BME280;37397;53.226;10.400;2022-08-19T12:08:18;100870.81;;;22.44;67.68
51313;BME280;37397;53.226;10.400;2022-08-19T12:10:44;100873.16;;;22.45;67.92
51313;BME280;37397;53.226;10.400;2022-08-19T12:13:12;100872.00;;;22.48;67.84
51313;BME280;37397;53.226;10.400;2022-08-19T12:15:46;100875.13;;;22.50;67.29
51313;BME280;37397;53.226;10.400;2022-08-19T12:18:13;100860.81;;;22.52;67.40
51313;BME280;37397;53.226;10.400;2022-08-19T12:20:42;100863.50;;;22.50;67.74
51313;BME280;37397;53.226;10.400;2022-08-19T12:23:09;100870.44;;;22.47;67.92
51313;BME280;37397;53.226;10.400;2022-08-19T12:25:37;100866.41;;;22.50;68.12
51313;BME280;37397;53.226;10.400;2022-08-19T12:28:04;100866.66;;;22.52;68.04
51313;BME280;37397;53.226;10.400;2022-08-19T12:30:30;100873.59;;;22.49;68.22
51313;BME280;37397;53.226;10.400;2022-08-19T12:32:57;100877.47;;;22.52;68.08
51313;BME280;37397;53.226;10.400;2022-08-19T12:35:23;100876.34;;;22.55;68.04
51313;BME280;37397;53.226;10.400;2022-08-19T12:37:50;100874.66;;;22.60;67.88
51313;BME280;37397;53.226;10.400;2022-08-19T12:40:23;100873.06;;;22.58;68.19
51313;BME280;37397;53.226;10.400;2022-08-19T12:42:53;100878.13;;;22.58;67.69
51313;BME280;37397;53.226;10.400;2022-08-19T12:45:19;100874.78;;;22.54;68.26
51313;BME280;37397;53.226;10.400;2022-08-19T12:47:46;100877.75;;;22.62;68.09
51313;BME280;37397;53.226;10.400;2022-08-19T12:50:14;100870.59;;;22.63;67.96
51313;BME280;37397;53.226;10.400;2022-08-19T12:52:41;100873.72;;;22.65;67.89
51313;BME280;37397;53.226;10.400;2022-08-19T12:55:09;100874.84;;;22.62;67.91
51313;BME280;37397;53.226;10.400;2022-08-19T12:57:35;100877.06;;;22.69;67.85
51313;BME280;37397;53.226;10.400;2022-08-19T13:00:10;100876.16;;;22.74;67.61
51313;BME280;37397;53.226;10.400;2022-08-19T13:02:40;100880.84;;;22.77;67.52
51313;BME280;37397;53.226;10.400;2022-08-19T13:05:09;100871.66;;;22.73;67.63
51313;BME280;37397;53.226;10.400;2022-08-19T13:07:38;100871.47;;;22.71;67.80